sensor_id;sensor_type;location;lat;lon;timestamp;pressure;altitude;pressure_sealevel;temperature;humidity
50011;BME280;35899;50.352;19.390;2023-03-20T00:03:05;97767.68;;;4.02;63.25
50011;BME280;35899;50.352;19.390;2023-03-20T00:05:31;97761.76;;;4.00;63.46
50011;BME280;35899;50.352;19.390;2023-03-20T00:07:58;97763.05;;;3.98;63.53
50011;BME280;35899;50.352;19.390;2023-03-20T00:10:26;97759.98;;;3.95;63.35
50011;BME280;35899;50.352;19.390;2023-03-20T00:12:54;97759.95;;;3.91;63.62
50011;BME280;35899;50.352;19.390;2023-03-20T00:15:22;97759.02;;;3.89;63.79
50011;BME280;35899;50.352;19.390;2023-03-20T00:17:49;97758.50;;;3.85;63.97
50011;BME280;35899;50.352;19.390;2023-03-20T00:20:16;97756.85;;;3.84;64.14
50011;BME280;35899;50.352;19.390;2023-03-20T00:22:42;97756.02;;;3.84;64.17
50011;BME280;35899;50.352;19.390;2023-03-20T00:25:13;97750.91;;;3.79;64.38
50011;BME280;35899;50.352;19.390;2023-03-20T00:27:39;97752.05;;;3.77;64.50
50011;BME280;35899;50.352;19.390;2023-03-20T00:30:23;97749.40;;;3.75;64.68
50011;BME280;35899;50.352;19.390;2023-03-20T00:32:51;97753.13;;;3.76;64.67
50011;BME280;35899;50.352;19.390;2023-03-20T00:35:25;97751.92;;;3.80;64.96
50011;BME280;35899;50.352;19.390;2023-03-20T00:37:52;97751.67;;;3.82;65.00
50011;BME280;35899;50.352;19.390;2023-03-20T00:40:19;97748.07;;;3.82;64.87
50011;BME280;35899;50.352;19.390;2023-03-20T00:42:48;97744.30;;;3.82;65.05
50011;BME280;35899;50.352;19.390;2023-03-20T00:45:17;97742.61;;;3.81;65.17
50011;BME280;35899;50.352;19.390;2023-03-20T00:47:44;97741.23;;;3.85;65.23
50011;BME280;35899;50.352;19.390;2023-03-20T00:50:21;97741.08;;;3.92;65.14
50011;BME280;35899;50.352;19.390;2023-03-20T00:52:49;97741.50;;;3.98;65.29
50011;BME280;35899;50.352;19.390;2023-03-20T00:55:16;97742.44;;;4.00;65.31
50011;BME280;35899;50.352;19.390;2023-03-20T00:57:45;97743.27;;;4.00;65.25
50011;BME280;35899;50.352;19.390;2023-03-20T01:00:20;97744.71;;;4.03;65.62
50011;BME280;35899;50.352;19.390;2023-03-20T01:02:48;97741.91;;;4.04;65.57
50011;BME280;35899;50.352;19.390;2023-03-20T01:05:15;97740.08;;;4.06;65.51
50011;BME280;35899;50.352;19.390;2023-03-20T01:07:41;97736.64;;;4.07;65.50
50011;BME280;35899;50.352;19.390;2023-03-20T01:10:08;97734.23;;;4.07;65.79
50011;BME280;35899;50.352;19.390;2023-03-20T01:12:35;97730.19;;;4.06;65.68
50011;BME280;35899;50.352;19.390;2023-03-20T01:15:01;97726.45;;;4.01;65.63
50011;BME280;35899;50.352;19.390;2023-03-20T01:17:28;97736.14;;;3.96;65.51
50011;BME280;35899;50.352;19.390;2023-03-20T01:19:54;97732.63;;;3.90;65.42
50011;BME280;35899;50.352;19.390;2023-03-20T01:22:20;97734.60;;;3.84;65.53
50011;BME280;35899;50.352;19.390;2023-03-20T01:24:47;97733.97;;;3.79;65.63
50011;BME280;35899;50.352;19.390;2023-03-20T01:27:15;97732.54;;;3.73;65.68
50011;BME280;35899;50.352;19.390;2023-03-20T01:29:42;97730.92;;;3.71;65.73
50011;BME280;35899;50.352;19.390;2023-03-20T01:32:16;97731.94;;;3.67;65.96
50011;BME280;35899;50.352;19.390;2023-03-20T01:34:45;97731.22;;;3.68;66.53
50011;BME280;35899;50.352;19.390;2023-03-20T01:37:13;97729.97;;;3.69;66.59
50011;BME280;35899;50.352;19.390;2023-03-20T01:39:42;97729.84;;;3.72;66.56
50011;BME280;35899;50.352;19.390;2023-03-20T01:42:10;97729.06;;;3.74;66.59
50011;BME280;35899;50.352;19.390;2023-03-20T01:44:41;97731.48;;;3.78;66.78
50011;BME280;35899;50.352;19.390;2023-03-20T01:47:15;97728.70;;;3.82;66.83
50011;BME280;35899;50.352;19.390;2023-03-20T01:52:28;97733.10;;;3.91;66.80
50011;BME280;35899;50.352;19.390;2023-03-20T01:54:54;97733.55;;;3.96;67.11
50011;BME280;35899;50.352;19.390;2023-03-20T01:57:21;97735.31;;;4.02;67.34
50011;BME280;35899;50.352;19.390;2023-03-20T02:00:22;97734.00;;;4.08;67.26
50011;BME280;35899;50.352;19.390;2023-03-20T02:02:42;97733.91;;;4.21;67.70
50011;BME280;35899;50.352;19.390;2023-03-20T02:05:11;97736.48;;;4.32;67.41
50011;BME280;35899;50.352;19.390;2023-03-20T02:07:39;97737.92;;;4.38;67.17
50011;BME280;35899;50.352;19.390;2023-03-20T02:10:10;97740.23;;;4.36;66.74
50011;BME280;35899;50.352;19.390;2023-03-20T02:12:43;97745.84;;;4.29;66.44
50011;BME280;35899;50.352;19.390;2023-03-20T02:15:12;97741.92;;;4.25;66.55
50011;BME280;35899;50.352;19.390;2023-03-20T02:18:05;97741.68;;;4.20;66.53
50011;BME280;35899;50.352;19.390;2023-03-20T02:20:45;97740.63;;;4.17;66.35
50011;BME280;35899;50.352;19.390;2023-03-20T02:23:24;97738.64;;;4.15;66.69
50011;BME280;35899;50.352;19.390;2023-03-20T02:44:05;97728.58;;;4.47;66.90
50011;BME280;35899;50.352;19.390;2023-03-20T02:46:36;97728.77;;;4.39;66.69
50011;BME280;35899;50.352;19.390;2023-03-20T02:59:33;97735.30;;;3.88;66.65
50011;BME280;35899;50.352;19.390;2023-03-20T03:02:03;97731.92;;;3.83;66.94
50011;BME280;35899;50.352;19.390;2023-03-20T03:04:32;97731.66;;;3.77;67.14
50011;BME280;35899;50.352;19.390;2023-03-20T03:07:00;97733.29;;;3.76;67.30
50011;BME280;35899;50.352;19.390;2023-03-20T03:09:32;97734.11;;;3.76;67.56
50011;BME280;35899;50.352;19.390;2023-03-20T03:12:00;97730.71;;;3.79;67.57
50011;BME280;35899;50.352;19.390;2023-03-20T03:14:42;97732.55;;;3.84;67.91
50011;BME280;35899;50.352;19.390;2023-03-20T03:17:12;97730.64;;;3.88;68.25
50011;BME280;35899;50.352;19.390;2023-03-20T03:19:42;97727.83;;;3.94;68.58
50011;BME280;35899;50.352;19.390;2023-03-20T03:22:11;97720.40;;;3.99;68.58
50011;BME280;35899;50.352;19.390;2023-03-20T03:24:38;97722.38;;;4.04;68.67
50011;BME280;35899;50.352;19.390;2023-03-20T03:27:14;97722.22;;;4.08;68.56
50011;BME280;35899;50.352;19.390;2023-03-20T03:29:41;97720.38;;;4.14;68.45
50011;BME280;35899;50.352;19.390;2023-03-20T03:32:20;97719.16;;;4.21;68.74
50011;BME280;35899;50.352;19.390;2023-03-20T03:34:47;97715.98;;;4.27;68.63
50011;BME280;35899;50.352;19.390;2023-03-20T03:37:25;97713.77;;;4.30;69.08
50011;BME280;35899;50.352;19.390;2023-03-20T03:40:06;97714.09;;;4.35;68.81
50011;BME280;35899;50.352;19.390;2023-03-20T03:45:48;97713.41;;;4.41;68.68
50011;BME280;35899;50.352;19.390;2023-03-20T03:48:20;97713.60;;;4.45;68.32
50011;BME280;35899;50.352;19.390;2023-03-20T03:50:52;97716.20;;;4.47;68.77
50011;BME280;35899;50.352;19.390;2023-03-20T03:53:21;97711.80;;;4.50;68.92
50011;BME280;35899;50.352;19.390;2023-03-20T03:55:51;97711.92;;;4.51;68.79
50011;BME280;35899;50.352;19.390;2023-03-20T03:58:27;97716.42;;;4.50;68.89
50011;BME280;35899;50.352;19.390;2023-03-20T04:00:54;97717.19;;;4.45;68.79
50011;BME280;35899;50.352;19.390;2023-03-20T04:03:23;97717.55;;;4.41;68.95
50011;BME280;35899;50.352;19.390;2023-03-20T04:05:51;97717.60;;;4.40;69.03
50011;BME280;35899;50.352;19.390;2023-03-20T04:08:19;97716.95;;;4.39;69.25
50011;BME280;35899;50.352;19.390;2023-03-20T04:10:46;97717.95;;;4.40;69.35
50011;BME280;35899;50.352;19.390;2023-03-20T04:13:12;97716.04;;;4.40;69.39
50011;BME280;35899;50.352;19.390;2023-03-20T04:15:39;97718.09;;;4.40;69.51
50011;BME280;35899;50.352;19.390;2023-03-20T04:18:07;97714.15;;;4.40;69.15
50011;BME280;35899;50.352;19.390;2023-03-20T04:20:37;97716.44;;;4.39;69.34
50011;BME280;35899;50.352;19.390;2023-03-20T04:23:04;97716.48;;;4.42;69.23
50011;BME280;35899;50.352;19.390;2023-03-20T04:25:30;97715.16;;;4.44;69.10
50011;BME280;35899;50.352;19.390;2023-03-20T04:27:57;97718.42;;;4.47;69.16
50011;BME280;35899;50.352;19.390;2023-03-20T04:30:41;97717.89;;;4.51;68.97
50011;BME280;35899;50.352;19.390;2023-03-20T04:33:43;97715.59;;;4.46;68.97
50011;BME280;35899;50.352;19.390;2023-03-20T04:36:46;97714.84;;;4.37;68.94
50011;BME280;35899;50.352;19.390;2023-03-20T04:39:14;97712.91;;;4.30;69.13
50011;BME280;35899;50.352;19.390;2023-03-20T04:41:41;97714.73;;;4.28;69.25
50011;BME280;35899;50.352;19.390;2023-03-20T04:44:08;97718.34;;;4.28;69.36
50011;BME280;35899;50.352;19.390;2023-03-20T04:46:34;97717.03;;;4.26;69.41
50011;BME280;35899;50.352;19.390;2023-03-20T04:49:05;97717.18;;;4.27;69.76
50011;BME280;35899;50.352;19.390;2023-03-20T04:51:31;97719.35;;;4.28;69.79
50011;BME280;35899;50.352;19.390;2023-03-20T04:53:57;97716.73;;;4.29;69.91
50011;BME280;35899;50.352;19.390;2023-03-20T04:56:24;97718.60;;;4.29;70.03
50011;BME280;35899;50.352;19.390;2023-03-20T04:58:53;97721.44;;;4.31;69.80
50011;BME280;35899;50.352;19.390;2023-03-20T05:01:20;97724.97;;;4.33;70.21
50011;BME280;35899;50.352;19.390;2023-03-20T05:03:47;97731.00;;;4.36;70.09
50011;BME280;35899;50.352;19.390;2023-03-20T05:06:14;97735.17;;;4.38;70.24
50011;BME280;35899;50.352;19.390;2023-03-20T05:08:42;97733.08;;;4.42;70.12
50011;BME280;35899;50.352;19.390;2023-03-20T05:11:09;97733.95;;;4.45;70.29
50011;BME280;35899;50.352;19.390;2023-03-20T05:14:02;97733.86;;;4.47;69.97
50011;BME280;35899;50.352;19.390;2023-03-20T05:16:43;97736.51;;;4.49;70.12
50011;BME280;35899;50.352;19.390;2023-03-20T05:19:18;97738.73;;;4.53;70.10
50011;BME280;35899;50.352;19.390;2023-03-20T05:21:52;97741.40;;;4.58;70.27
50011;BME280;35899;50.352;19.390;2023-03-20T05:24:46;97743.16;;;4.63;69.66
50011;BME280;35899;50.352;19.390;2023-03-20T05:27:35;97745.16;;;4.68;69.58
50011;BME280;35899;50.352;19.390;2023-03-20T05:30:20;97745.15;;;4.76;69.42
50011;BME280;35899;50.352;19.390;2023-03-20T05:33:07;97743.98;;;4.82;69.53
50011;BME280;35899;50.352;19.390;2023-03-20T05:35:53;97747.32;;;4.87;69.52
50011;BME280;35899;50.352;19.390;2023-03-20T05:38:40;97740.05;;;4.92;69.62
50011;BME280;35899;50.352;19.390;2023-03-20T05:41:29;97742.44;;;4.96;69.52
50011;BME280;35899;50.352;19.390;2023-03-20T05:44:17;97742.54;;;4.94;69.54
50011;BME280;35899;50.352;19.390;2023-03-20T05:46:55;97743.56;;;4.90;69.60
50011;BME280;35899;50.352;19.390;2023-03-20T05:49:51;97744.09;;;4.90;69.69
50011;BME280;35899;50.352;19.390;2023-03-20T05:52:24;97744.37;;;4.98;69.71
50011;BME280;35899;50.352;19.390;2023-03-20T05:55:10;97748.91;;;5.07;69.86
50011;BME280;35899;50.352;19.390;2023-03-20T05:57:57;97745.80;;;5.11;69.61
50011;BME280;35899;50.352;19.390;2023-03-20T06:00:41;97744.25;;;5.11;69.52
50011;BME280;35899;50.352;19.390;2023-03-20T06:03:26;97747.73;;;5.17;69.36
50011;BME280;35899;50.352;19.390;2023-03-20T06:05:58;97752.52;;;5.30;69.06
50011;BME280;35899;50.352;19.390;2023-03-20T06:08:24;97749.97;;;5.53;69.39
50011;BME280;35899;50.352;19.390;2023-03-20T06:10:51;97752.68;;;5.79;69.49
50011;BME280;35899;50.352;19.390;2023-03-20T06:13:17;97756.43;;;6.06;69.37
50011;BME280;35899;50.352;19.390;2023-03-20T06:15:44;97758.41;;;6.30;69.29
50011;BME280;35899;50.352;19.390;2023-03-20T06:18:14;97756.26;;;6.53;69.24
50011;BME280;35899;50.352;19.390;2023-03-20T06:20:40;97756.55;;;6.75;69.54
50011;BME280;35899;50.352;19.390;2023-03-20T06:23:07;97756.48;;;6.94;69.72
50011;BME280;35899;50.352;19.390;2023-03-20T06:25:33;97762.27;;;7.19;69.83
50011;BME280;35899;50.352;19.390;2023-03-20T06:28:01;97761.56;;;7.45;69.85
50011;BME280;35899;50.352;19.390;2023-03-20T06:30:27;97764.30;;;7.71;69.88
50011;BME280;35899;50.352;19.390;2023-03-20T06:32:54;97765.08;;;7.93;69.69
50011;BME280;35899;50.352;19.390;2023-03-20T06:35:21;97767.52;;;8.11;69.70
50011;BME280;35899;50.352;19.390;2023-03-20T06:37:48;97764.57;;;8.31;69.80
50011;BME280;35899;50.352;19.390;2023-03-20T06:40:19;97759.51;;;8.54;69.92
50011;BME280;35899;50.352;19.390;2023-03-20T06:42:46;97757.97;;;8.70;69.20
50011;BME280;35899;50.352;19.390;2023-03-20T06:45:13;97756.87;;;8.84;68.96
50011;BME280;35899;50.352;19.390;2023-03-20T06:47:51;97763.34;;;8.96;67.77
50011;BME280;35899;50.352;19.390;2023-03-20T06:50:18;97762.16;;;9.08;66.87
50011;BME280;35899;50.352;19.390;2023-03-20T06:52:45;97756.29;;;9.24;66.60
50011;BME280;35899;50.352;19.390;2023-03-20T06:55:37;97760.55;;;9.43;66.44
50011;BME280;35899;50.352;19.390;2023-03-20T06:58:04;97761.35;;;9.54;66.66
50011;BME280;35899;50.352;19.390;2023-03-20T07:00:31;97762.17;;;9.60;66.80
50011;BME280;35899;50.352;19.390;2023-03-20T07:03:00;97761.68;;;9.66;66.65
50011;BME280;35899;50.352;19.390;2023-03-20T07:05:28;97765.36;;;9.73;66.31
50011;BME280;35899;50.352;19.390;2023-03-20T07:07:55;97769.36;;;9.78;65.96
50011;BME280;35899;50.352;19.390;2023-03-20T07:10:21;97773.37;;;9.82;66.05
50011;BME280;35899;50.352;19.390;2023-03-20T07:12:50;97771.73;;;9.84;65.77
50011;BME280;35899;50.352;19.390;2023-03-20T07:15:17;97776.95;;;9.86;65.48
50011;BME280;35899;50.352;19.390;2023-03-20T07:17:44;97775.95;;;9.90;65.58
50011;BME280;35899;50.352;19.390;2023-03-20T07:20:11;97777.73;;;9.94;65.23
50011;BME280;35899;50.352;19.390;2023-03-20T07:22:37;97783.25;;;10.02;65.13
50011;BME280;35899;50.352;19.390;2023-03-20T07:25:14;97782.89;;;10.14;64.99
50011;BME280;35899;50.352;19.390;2023-03-20T07:27:42;97787.25;;;10.26;64.98
50011;BME280;35899;50.352;19.390;2023-03-20T07:30:09;97789.94;;;10.35;65.17
50011;BME280;35899;50.352;19.390;2023-03-20T07:32:38;97792.81;;;10.43;65.27
50011;BME280;35899;50.352;19.390;2023-03-20T07:35:04;97796.17;;;10.54;65.68
50011;BME280;35899;50.352;19.390;2023-03-20T07:37:31;97797.29;;;10.66;65.15
50011;BME280;35899;50.352;19.390;2023-03-20T07:40:02;97796.88;;;10.71;64.01
50011;BME280;35899;50.352;19.390;2023-03-20T07:42:31;97798.34;;;10.72;63.45
50011;BME280;35899;50.352;19.390;2023-03-20T07:45:04;97798.58;;;10.76;63.48
50011;BME280;35899;50.352;19.390;2023-03-20T07:47:31;97802.59;;;10.81;62.89
50011;BME280;35899;50.352;19.390;2023-03-20T07:49:58;97800.01;;;10.90;62.85
50011;BME280;35899;50.352;19.390;2023-03-20T07:52:24;97794.80;;;11.02;62.78
50011;BME280;35899;50.352;19.390;2023-03-20T07:54:52;97794.86;;;11.17;62.75
50011;BME280;35899;50.352;19.390;2023-03-20T07:57:19;97797.27;;;11.34;62.95
50011;BME280;35899;50.352;19.390;2023-03-20T07:59:46;97796.90;;;11.52;63.05
50011;BME280;35899;50.352;19.390;2023-03-20T08:02:13;97798.10;;;11.71;63.15
50011;BME280;35899;50.352;19.390;2023-03-20T08:04:40;97796.77;;;11.86;62.96
50011;BME280;35899;50.352;19.390;2023-03-20T08:07:06;97796.70;;;11.94;62.97
50011;BME280;35899;50.352;19.390;2023-03-20T08:09:33;97795.52;;;12.02;62.70
50011;BME280;35899;50.352;19.390;2023-03-20T08:12:00;97797.30;;;12.13;62.77
50011;BME280;35899;50.352;19.390;2023-03-20T08:14:26;97796.77;;;12.35;62.79
50011;BME280;35899;50.352;19.390;2023-03-20T08:16:52;97789.91;;;12.58;62.55
50011;BME280;35899;50.352;19.390;2023-03-20T08:19:39;97792.65;;;12.69;62.23
50011;BME280;35899;50.352;19.390;2023-03-20T08:22:05;97793.77;;;12.75;61.84
50011;BME280;35899;50.352;19.390;2023-03-20T08:24:31;97795.46;;;12.84;61.71
50011;BME280;35899;50.352;19.390;2023-03-20T08:26:58;97795.98;;;12.93;61.63
50011;BME280;35899;50.352;19.390;2023-03-20T08:29:24;97790.92;;;12.97;61.73
50011;BME280;35899;50.352;19.390;2023-03-20T08:31:51;97793.25;;;12.96;61.70
50011;BME280;35899;50.352;19.390;2023-03-20T08:37:35;97801.23;;;12.75;61.29
50011;BME280;35899;50.352;19.390;2023-03-20T08:40:02;97805.98;;;12.68;61.41
50011;BME280;35899;50.352;19.390;2023-03-20T08:42:28;97809.48;;;12.63;61.70
50011;BME280;35899;50.352;19.390;2023-03-20T08:44:55;97808.27;;;12.61;61.65
50011;BME280;35899;50.352;19.390;2023-03-20T08:47:21;97806.79;;;12.53;61.65
50011;BME280;35899;50.352;19.390;2023-03-20T08:49:48;97809.36;;;12.58;61.76
50011;BME280;35899;50.352;19.390;2023-03-20T08:52:15;97809.39;;;12.73;61.96
50011;BME280;35899;50.352;19.390;2023-03-20T08:54:41;97806.63;;;12.92;62.36
50011;BME280;35899;50.352;19.390;2023-03-20T08:57:08;97808.80;;;12.99;62.40
50011;BME280;35899;50.352;19.390;2023-03-20T08:59:34;97808.32;;;12.90;62.03
50011;BME280;35899;50.352;19.390;2023-03-20T09:02:01;97806.05;;;12.75;62.04
50011;BME280;35899;50.352;19.390;2023-03-20T09:04:27;97809.66;;;12.67;62.03
50011;BME280;35899;50.352;19.390;2023-03-20T09:06:54;97812.44;;;12.65;62.08
50011;BME280;35899;50.352;19.390;2023-03-20T09:09:21;97810.43;;;12.62;62.14
50011;BME280;35899;50.352;19.390;2023-03-20T09:11:47;97805.45;;;12.55;62.21
50011;BME280;35899;50.352;19.390;2023-03-20T09:14:14;97804.52;;;12.56;62.33
50011;BME280;35899;50.352;19.390;2023-03-20T09:16:41;97805.58;;;12.62;62.20
50011;BME280;35899;50.352;19.390;2023-03-20T09:19:07;97807.64;;;12.66;62.46
50011;BME280;35899;50.352;19.390;2023-03-20T09:21:34;97806.98;;;12.72;62.49
50011;BME280;35899;50.352;19.390;2023-03-20T09:24:37;97805.92;;;12.73;62.28
50011;BME280;35899;50.352;19.390;2023-03-20T09:27:08;97809.77;;;12.83;62.49
50011;BME280;35899;50.352;19.390;2023-03-20T09:29:34;97808.09;;;13.04;62.18
50011;BME280;35899;50.352;19.390;2023-03-20T09:32:01;97809.44;;;13.19;61.80
50011;BME280;35899;50.352;19.390;2023-03-20T09:34:29;97809.48;;;13.22;61.75
50011;BME280;35899;50.352;19.390;2023-03-20T09:36:59;97810.23;;;13.16;61.81
50011;BME280;35899;50.352;19.390;2023-03-20T09:39:28;97806.11;;;13.07;62.08
50011;BME280;35899;50.352;19.390;2023-03-20T09:42:23;97811.04;;;12.87;62.39
50011;BME280;35899;50.352;19.390;2023-03-20T09:45:07;97809.33;;;12.73;62.91
50011;BME280;35899;50.352;19.390;2023-03-20T09:52:53;97810.52;;;12.45;63.67
50011;BME280;35899;50.352;19.390;2023-03-20T09:55:42;97809.65;;;12.37;64.00
50011;BME280;35899;50.352;19.390;2023-03-20T10:00:48;97813.29;;;12.13;64.59
50011;BME280;35899;50.352;19.390;2023-03-20T10:03:42;97815.09;;;12.00;64.86
50011;BME280;35899;50.352;19.390;2023-03-20T10:06:18;97817.91;;;11.84;65.25
50011;BME280;35899;50.352;19.390;2023-03-20T10:08:46;97819.80;;;11.68;65.69
50011;BME280;35899;50.352;19.390;2023-03-20T10:11:18;97820.11;;;11.53;66.20
50011;BME280;35899;50.352;19.390;2023-03-20T10:13:56;97816.56;;;11.40;66.71
50011;BME280;35899;50.352;19.390;2023-03-20T10:16:45;97813.77;;;11.33;66.86
50011;BME280;35899;50.352;19.390;2023-03-20T10:19:23;97817.83;;;11.32;67.49
50011;BME280;35899;50.352;19.390;2023-03-20T10:22:00;97817.27;;;11.37;67.77
50011;BME280;35899;50.352;19.390;2023-03-20T10:26:57;97810.73;;;11.64;68.25
50011;BME280;35899;50.352;19.390;2023-03-20T10:34:42;97812.32;;;12.05;68.45
50011;BME280;35899;50.352;19.390;2023-03-20T10:42:44;97812.13;;;12.17;68.89
50011;BME280;35899;50.352;19.390;2023-03-20T10:45:24;97811.06;;;12.14;69.09
50011;BME280;35899;50.352;19.390;2023-03-20T10:47:53;97816.66;;;12.02;69.23
50011;BME280;35899;50.352;19.390;2023-03-20T10:50:30;97817.21;;;11.96;69.51
50011;BME280;35899;50.352;19.390;2023-03-20T10:52:59;97813.21;;;11.88;69.80
50011;BME280;35899;50.352;19.390;2023-03-20T10:55:29;97808.79;;;11.85;70.06
50011;BME280;35899;50.352;19.390;2023-03-20T10:57:58;97806.35;;;11.81;70.36
50011;BME280;35899;50.352;19.390;2023-03-20T11:00:27;97807.70;;;11.79;70.44
50011;BME280;35899;50.352;19.390;2023-03-20T11:02:53;97804.04;;;11.75;70.72
50011;BME280;35899;50.352;19.390;2023-03-20T11:05:40;97803.60;;;11.69;71.02
50011;BME280;35899;50.352;19.390;2023-03-20T11:08:38;97802.20;;;11.69;71.23
50011;BME280;35899;50.352;19.390;2023-03-20T11:26:41;97790.50;;;12.29;71.55
50011;BME280;35899;50.352;19.390;2023-03-20T11:29:14;97788.25;;;12.48;71.45
50011;BME280;35899;50.352;19.390;2023-03-20T11:31:44;97779.85;;;12.71;71.33
50011;BME280;35899;50.352;19.390;2023-03-20T11:36:46;97777.34;;;13.20;70.96
50011;BME280;35899;50.352;19.390;2023-03-20T11:39:52;97767.54;;;13.53;70.64
50011;BME280;35899;50.352;19.390;2023-03-20T11:42:23;97769.21;;;13.84;69.89
50011;BME280;35899;50.352;19.390;2023-03-20T11:44:56;97768.80;;;14.19;69.29
50011;BME280;35899;50.352;19.390;2023-03-20T11:47:42;97764.41;;;14.26;68.57
50011;BME280;35899;50.352;19.390;2023-03-20T11:50:45;97762.94;;;14.03;68.29
50011;BME280;35899;50.352;19.390;2023-03-20T11:56:57;97761.52;;;13.77;68.81
50011;BME280;35899;50.352;19.390;2023-03-20T12:00:24;97755.55;;;13.79;68.69
50011;BME280;35899;50.352;19.390;2023-03-20T12:05:51;97749.77;;;13.78;68.56
50011;BME280;35899;50.352;19.390;2023-03-20T12:08:25;97745.88;;;13.81;68.66
50011;BME280;35899;50.352;19.390;2023-03-20T12:10:53;97746.80;;;13.82;68.58
50011;BME280;35899;50.352;19.390;2023-03-20T12:13:21;97744.55;;;13.84;68.34
50011;BME280;35899;50.352;19.390;2023-03-20T12:15:51;97746.70;;;13.91;68.15
50011;BME280;35899;50.352;19.390;2023-03-20T12:18:29;97746.46;;;14.08;68.09
50011;BME280;35899;50.352;19.390;2023-03-20T12:31:29;97745.34;;;13.71;68.25
50011;BME280;35899;50.352;19.390;2023-03-20T12:33:59;97745.95;;;13.51;68.42
50011;BME280;35899;50.352;19.390;2023-03-20T12:36:29;97744.16;;;13.33;69.03
50011;BME280;35899;50.352;19.390;2023-03-20T12:38:57;97749.58;;;13.18;69.68
50011;BME280;35899;50.352;19.390;2023-03-20T12:44:21;97747.27;;;12.81;70.18
50011;BME280;35899;50.352;19.390;2023-03-20T12:52:37;97753.92;;;12.26;71.77
50011;BME280;35899;50.352;19.390;2023-03-20T13:03:19;97744.08;;;12.32;72.81
50011;BME280;35899;50.352;19.390;2023-03-20T13:13:46;97747.63;;;12.44;73.15
50011;BME280;35899;50.352;19.390;2023-03-20T13:16:44;97743.14;;;12.42;73.21
50011;BME280;35899;50.352;19.390;2023-03-20T13:22:14;97744.52;;;12.44;73.15
50011;BME280;35899;50.352;19.390;2023-03-20T13:24:49;97739.55;;;12.47;73.17
50011;BME280;35899;50.352;19.390;2023-03-20T13:27:29;97741.08;;;12.59;73.11
50011;BME280;35899;50.352;19.390;2023-03-20T13:36:04;97730.29;;;13.08;72.36
50011;BME280;35899;50.352;19.390;2023-03-20T13:38:36;97725.86;;;13.19;71.92
50011;BME280;35899;50.352;19.390;2023-03-20T13:41:05;97723.83;;;13.37;71.86
50011;BME280;35899;50.352;19.390;2023-03-20T13:43:40;97727.23;;;13.57;71.35
50011;BME280;35899;50.352;19.390;2023-03-20T13:46:09;97724.41;;;13.67;71.06
50011;BME280;35899;50.352;19.390;2023-03-20T13:48:38;97719.52;;;13.67;70.65
50011;BME280;35899;50.352;19.390;2023-03-20T13:53:52;97718.30;;;13.55;70.61
50011;BME280;35899;50.352;19.390;2023-03-20T14:01:24;97717.59;;;13.20;71.07
50011;BME280;35899;50.352;19.390;2023-03-20T14:03:55;97718.09;;;13.02;71.15
50011;BME280;35899;50.352;19.390;2023-03-20T14:08:52;97721.59;;;12.70;71.92
50011;BME280;35899;50.352;19.390;2023-03-20T14:13:55;97721.92;;;12.47;72.63
50011;BME280;35899;50.352;19.390;2023-03-20T14:16:25;97725.29;;;12.33;73.06
50011;BME280;35899;50.352;19.390;2023-03-20T14:21:35;97727.80;;;12.17;73.66
50011;BME280;35899;50.352;19.390;2023-03-20T14:24:05;97728.10;;;12.10;74.10
50011;BME280;35899;50.352;19.390;2023-03-20T14:26:38;97728.66;;;12.01;74.19
50011;BME280;35899;50.352;19.390;2023-03-20T14:31:35;97732.42;;;11.91;74.74
50011;BME280;35899;50.352;19.390;2023-03-20T14:37:23;97733.84;;;11.84;75.24
50011;BME280;35899;50.352;19.390;2023-03-20T14:39:20;97735.84;;;11.80;75.44
50011;BME280;35899;50.352;19.390;2023-03-20T14:44:53;97733.24;;;11.73;75.82
50011;BME280;35899;50.352;19.390;2023-03-20T14:50:02;97730.61;;;11.67;76.20
50011;BME280;35899;50.352;19.390;2023-03-20T14:57:45;97728.02;;;11.53;76.73
50011;BME280;35899;50.352;19.390;2023-03-20T15:00:27;97725.56;;;11.45;76.70
50011;BME280;35899;50.352;19.390;2023-03-20T15:03:36;97721.48;;;11.40;76.98
50011;BME280;35899;50.352;19.390;2023-03-20T15:05:43;97716.70;;;11.39;77.32
50011;BME280;35899;50.352;19.390;2023-03-20T15:08:21;97716.45;;;11.40;77.19
50011;BME280;35899;50.352;19.390;2023-03-20T15:10:53;97712.31;;;11.42;77.42
50011;BME280;35899;50.352;19.390;2023-03-20T15:13:20;97713.23;;;11.45;77.43
50011;BME280;35899;50.352;19.390;2023-03-20T15:15:58;97720.38;;;11.49;77.38
50011;BME280;35899;50.352;19.390;2023-03-20T15:18:26;97715.27;;;11.53;77.42
50011;BME280;35899;50.352;19.390;2023-03-20T15:20:54;97711.80;;;11.54;77.28
50011;BME280;35899;50.352;19.390;2023-03-20T15:23:21;97711.50;;;11.56;77.26
50011;BME280;35899;50.352;19.390;2023-03-20T15:25:48;97709.77;;;11.57;77.17
50011;BME280;35899;50.352;19.390;2023-03-20T15:28:18;97707.05;;;11.55;77.23
50011;BME280;35899;50.352;19.390;2023-03-20T15:30:45;97710.55;;;11.55;77.25
50011;BME280;35899;50.352;19.390;2023-03-20T15:33:15;97708.64;;;11.53;77.21
50011;BME280;35899;50.352;19.390;2023-03-20T15:35:42;97704.65;;;11.51;77.28
50011;BME280;35899;50.352;19.390;2023-03-20T15:38:09;97709.66;;;11.49;77.42
50011;BME280;35899;50.352;19.390;2023-03-20T15:41:27;97709.16;;;11.46;77.31
50011;BME280;35899;50.352;19.390;2023-03-20T15:49:19;97715.81;;;11.36;77.56
50011;BME280;35899;50.352;19.390;2023-03-20T15:51:46;97716.77;;;11.33;77.81
50011;BME280;35899;50.352;19.390;2023-03-20T15:54:14;97715.30;;;11.29;77.79
50011;BME280;35899;50.352;19.390;2023-03-20T15:56:44;97717.57;;;11.27;77.87
50011;BME280;35899;50.352;19.390;2023-03-20T15:59:12;97713.64;;;11.24;77.96
50011;BME280;35899;50.352;19.390;2023-03-20T16:01:39;97708.95;;;11.20;78.15
50011;BME280;35899;50.352;19.390;2023-03-20T16:04:05;97713.17;;;11.17;78.22
50011;BME280;35899;50.352;19.390;2023-03-20T16:06:32;97713.83;;;11.12;78.21